createdAt,value
2018-07-14T00:00:55.456Z,46.10
2018-07-14T00:02:58.083Z,46.00
2018-07-14T00:05:01.436Z,46.20
2018-07-14T00:07:04.057Z,46.10
2018-07-14T00:09:06.635Z,46.10
2018-07-14T00:11:09.231Z,46.10
2018-07-14T00:13:11.949Z,46.20
2018-07-14T00:15:14.516Z,46.20
2018-07-14T00:17:17.124Z,46.30
2018-07-14T00:19:19.707Z,46.30
2018-07-14T00:21:22.296Z,46.40
2018-07-14T00:23:24.896Z,46.30
2018-07-14T00:25:27.515Z,46.30
2018-07-14T00:27:30.868Z,46.30
2018-07-14T00:29:33.458Z,46.20
2018-07-14T00:31:36.235Z,46.30
2018-07-14T00:33:38.823Z,46.30
2018-07-14T00:35:42.910Z,46.40
2018-07-14T00:37:45.507Z,46.40
2018-07-14T00:39:48.855Z,46.50
2018-07-14T00:41:51.436Z,46.40
2018-07-14T00:43:54.049Z,46.40
2018-07-14T00:45:57.411Z,46.50
2018-07-14T00:48:00.028Z,46.40
2018-07-14T00:50:02.628Z,46.50
2018-07-14T00:52:05.349Z,46.50
2018-07-14T00:54:07.923Z,46.60
2018-07-14T00:56:10.618Z,46.70
2018-07-14T00:58:13.975Z,46.70
2018-07-14T01:00:16.564Z,46.70
2018-07-14T01:02:19.172Z,46.60
2018-07-14T01:04:21.760Z,46.70
2018-07-14T01:06:24.337Z,46.70
2018-07-14T01:08:26.938Z,46.70
2018-07-14T01:10:29.520Z,46.70
2018-07-14T01:12:32.119Z,46.70
2018-07-14T01:14:35.476Z,46.60
2018-07-14T01:16:38.046Z,46.60
2018-07-14T01:18:40.657Z,46.60
2018-07-14T01:20:44.024Z,46.60
2018-07-14T01:22:46.631Z,46.50
2018-07-14T01:24:49.960Z,46.50
2018-07-14T01:26:52.542Z,46.50
2018-07-14T01:28:55.100Z,46.50
2018-07-14T01:30:57.664Z,46.40
2018-07-14T01:33:01.073Z,46.30
2018-07-14T01:35:03.617Z,46.90
2018-07-14T01:37:06.161Z,46.30
2018-07-14T01:39:09.516Z,46.30
2018-07-14T01:41:12.090Z,46.20
2018-07-14T01:43:14.665Z,46.40
2018-07-14T01:45:17.215Z,46.50
2018-07-14T01:47:19.766Z,46.60
2018-07-14T01:49:23.213Z,46.90
2018-07-14T01:51:25.769Z,46.80
2018-07-14T01:53:28.337Z,46.90
2018-07-14T01:55:30.912Z,47.00
2018-07-14T01:57:33.481Z,47.00
2018-07-14T01:59:36.053Z,47.10
2018-07-14T02:01:38.612Z,47.20
2018-07-14T02:03:41.204Z,47.10
2018-07-14T02:05:43.741Z,47.10
2018-07-14T02:07:47.178Z,47.20
2018-07-14T02:09:49.725Z,47.10
2018-07-14T02:11:52.333Z,47.00
2018-07-14T02:13:54.897Z,47.00
2018-07-14T02:15:57.469Z,46.90
2018-07-14T02:18:00.017Z,47.00
2018-07-14T02:20:02.594Z,46.90
2018-07-14T02:22:05.138Z,46.80
2018-07-14T02:24:07.872Z,46.90
2018-07-14T02:26:10.425Z,46.80
2018-07-14T02:28:13.029Z,46.80
2018-07-14T02:30:15.705Z,46.80
2018-07-14T02:32:18.264Z,46.70
2018-07-14T02:34:20.827Z,46.70
2018-07-14T02:36:23.372Z,46.70
2018-07-14T02:38:25.929Z,46.80
2018-07-14T02:40:29.247Z,46.90
2018-07-14T02:42:31.851Z,46.80
2018-07-14T02:44:34.421Z,46.80
2018-07-14T02:46:36.968Z,46.70
2018-07-14T02:48:39.541Z,46.70
2018-07-14T02:50:42.098Z,46.70
2018-07-14T02:52:45.412Z,46.60
2018-07-14T02:54:47.974Z,46.60
2018-07-14T02:56:50.528Z,46.60
2018-07-14T02:58:53.877Z,46.50
2018-07-14T03:00:56.429Z,46.40
2018-07-14T03:02:59.059Z,46.40
2018-07-14T03:05:01.729Z,46.50
2018-07-14T03:07:04.294Z,46.50
2018-07-14T03:09:06.837Z,46.60
2018-07-14T03:11:09.389Z,46.60
2018-07-14T03:13:11.975Z,46.70
2018-07-14T03:15:14.565Z,46.70
2018-07-14T03:17:17.953Z,46.90
2018-07-14T03:19:20.525Z,46.80
2018-07-14T03:21:23.057Z,46.90
2018-07-14T03:23:25.624Z,46.90
2018-07-14T03:25:28.959Z,46.90
2018-07-14T03:27:31.509Z,46.80
2018-07-14T03:29:34.073Z,46.80
2018-07-14T03:31:36.619Z,46.80
2018-07-14T03:33:39.946Z,46.80
2018-07-14T03:35:42.494Z,46.70
2018-07-14T03:37:45.806Z,46.70
2018-07-14T03:39:48.415Z,46.70
2018-07-14T03:41:50.985Z,46.60
2018-07-14T03:43:53.588Z,46.60
2018-07-14T03:45:56.113Z,46.50
2018-07-14T03:47:58.662Z,46.40
2018-07-14T03:50:01.985Z,46.40
2018-07-14T03:52:04.532Z,46.40
2018-07-14T03:54:07.119Z,46.50
2018-07-14T03:56:09.676Z,46.50
2018-07-14T03:58:12.232Z,46.50
2018-07-14T04:00:15.585Z,47.20
2018-07-14T04:02:18.131Z,46.60
2018-07-14T04:04:20.766Z,46.80
2018-07-14T04:06:24.810Z,46.80
2018-07-14T04:08:28.549Z,46.80
2018-07-14T04:10:31.105Z,46.70
2018-07-14T04:12:33.653Z,46.60
2018-07-14T04:14:36.241Z,46.60
2018-07-14T04:16:38.870Z,46.70
2018-07-14T04:18:41.418Z,46.80
2018-07-14T04:20:43.984Z,46.70
2018-07-14T04:22:46.548Z,46.80
2018-07-14T04:24:49.117Z,46.90
2018-07-14T04:26:51.746Z,47.10
2018-07-14T04:28:54.377Z,47.30
2018-07-14T04:30:56.921Z,47.30
2018-07-14T04:32:59.469Z,47.40
2018-07-14T04:35:02.801Z,47.70
2018-07-14T04:37:05.493Z,47.60
2018-07-14T04:39:08.641Z,47.70
2018-07-14T04:41:11.205Z,47.90
2018-07-14T04:43:13.840Z,48.10
2018-07-14T04:45:16.398Z,48.20
2018-07-14T04:47:18.981Z,48.30
2018-07-14T04:49:21.569Z,48.50
2018-07-14T04:51:24.097Z,48.60
2018-07-14T04:53:26.653Z,48.60
2018-07-14T04:55:29.264Z,48.60
2018-07-14T04:57:31.940Z,48.40
2018-07-14T04:59:34.509Z,48.20
2018-07-14T05:01:37.052Z,48.20
2018-07-14T05:03:39.601Z,48.00
2018-07-14T05:05:42.943Z,47.70
2018-07-14T05:07:45.486Z,47.70
2018-07-14T05:09:48.051Z,47.60
2018-07-14T05:11:51.372Z,47.40
2018-07-14T05:13:53.922Z,47.40
2018-07-14T05:15:56.496Z,47.40
2018-07-14T05:17:59.816Z,47.30
2018-07-14T05:20:02.381Z,47.30
2018-07-14T05:22:04.977Z,47.20
2018-07-14T05:24:07.557Z,47.20
2018-07-14T05:26:10.126Z,47.20
2018-07-14T05:28:12.678Z,47.30
2018-07-14T05:30:15.239Z,47.30
2018-07-14T05:32:17.842Z,47.40
2018-07-14T05:34:20.548Z,47.40
2018-07-14T05:36:23.101Z,47.30
2018-07-14T05:38:25.662Z,47.40
2018-07-14T05:40:28.235Z,47.40
2018-07-14T05:42:30.790Z,47.40
2018-07-14T05:44:33.363Z,47.90
2018-07-14T05:46:35.909Z,47.10
2018-07-14T05:48:38.500Z,47.10
2018-07-14T05:50:41.070Z,47.00
2018-07-14T05:52:43.614Z,46.90
2018-07-14T05:54:46.941Z,47.00
2018-07-14T05:56:49.533Z,47.00
2018-07-14T05:58:52.076Z,47.20
2018-07-14T06:00:54.666Z,47.80
2018-07-14T06:02:57.255Z,47.10
2018-07-14T06:04:59.829Z,47.10
2018-07-14T06:07:02.382Z,47.20
2018-07-14T06:09:04.930Z,47.20
2018-07-14T06:11:08.259Z,47.40
2018-07-14T06:13:10.912Z,47.40
2018-07-14T06:15:13.517Z,47.50
2018-07-14T06:17:16.116Z,47.40
2018-07-14T06:19:18.669Z,47.40
2018-07-14T06:21:21.213Z,47.40
2018-07-14T06:23:23.809Z,47.30
2018-07-14T06:25:26.381Z,47.10
2018-07-14T06:27:28.937Z,47.00
2018-07-14T06:29:31.482Z,46.90
2018-07-14T06:31:34.822Z,46.70
2018-07-14T06:33:37.414Z,46.70
2018-07-14T06:35:40.106Z,46.60
2018-07-14T06:37:42.640Z,46.60
2018-07-14T06:39:45.213Z,46.50
2018-07-14T06:41:47.774Z,46.50
2018-07-14T06:43:50.325Z,46.50
2018-07-14T06:45:52.933Z,46.40
2018-07-14T06:47:55.496Z,46.40
2018-07-14T06:49:58.184Z,46.30
2018-07-14T06:52:00.745Z,46.40
2018-07-14T06:54:03.296Z,46.30
2018-07-14T06:56:06.061Z,46.20
2018-07-14T06:58:09.420Z,46.30
2018-07-14T07:00:12.047Z,46.20
2018-07-14T07:02:14.650Z,46.20
2018-07-14T07:04:17.225Z,46.30
2018-07-14T07:06:19.792Z,46.10
2018-07-14T07:08:22.337Z,46.00
2018-07-14T07:10:24.905Z,46.00
2018-07-14T07:12:27.513Z,45.80
2018-07-14T07:14:30.068Z,45.60
2018-07-14T07:16:32.693Z,45.60
2018-07-14T07:18:35.245Z,45.40
2018-07-14T07:20:37.913Z,45.20
2018-07-14T07:22:40.469Z,45.00
2018-07-14T07:24:43.012Z,44.90
2018-07-14T07:26:46.340Z,44.80
2018-07-14T07:28:49.855Z,44.80
2018-07-14T07:30:52.422Z,44.80
2018-07-14T07:32:54.957Z,44.60
2018-07-14T07:34:57.571Z,44.60
2018-07-14T07:37:00.150Z,44.50
2018-07-14T07:39:02.701Z,44.30
2018-07-14T07:41:05.284Z,44.20
2018-07-14T07:43:07.832Z,44.10
2018-07-14T07:45:10.433Z,44.10
2018-07-14T07:47:13.147Z,44.00
2018-07-14T07:49:15.673Z,43.90
2018-07-14T07:51:18.267Z,43.90
2018-07-14T07:53:20.821Z,43.90
2018-07-14T07:55:23.365Z,43.80
2018-07-14T07:57:25.941Z,43.90
2018-07-14T07:59:28.552Z,43.90
2018-07-14T08:01:31.159Z,44.00
2018-07-14T08:03:33.697Z,44.10
2018-07-14T08:05:36.249Z,44.20
2018-07-14T08:07:38.862Z,44.20
2018-07-14T08:09:41.435Z,44.30
2018-07-14T08:11:44.002Z,44.40
2018-07-14T08:13:46.568Z,44.30
2018-07-14T08:15:49.106Z,44.10
2018-07-14T08:17:51.833Z,44.10
2018-07-14T08:19:54.365Z,44.10
2018-07-14T08:21:56.925Z,44.20
2018-07-14T08:23:59.570Z,44.20
2018-07-14T08:26:02.126Z,44.10
2018-07-14T08:28:04.668Z,44.20
2018-07-14T08:30:07.251Z,44.20
2018-07-14T08:32:09.820Z,44.20
2018-07-14T08:34:12.417Z,44.20
2018-07-14T08:36:15.069Z,44.20
2018-07-14T08:38:17.621Z,44.20
2018-07-14T08:40:20.223Z,44.10
2018-07-14T08:42:22.814Z,44.10
2018-07-14T08:44:25.381Z,44.10
2018-07-14T08:46:27.952Z,43.90
2018-07-14T08:48:30.532Z,44.10
2018-07-14T08:50:33.135Z,44.20
2018-07-14T08:52:35.656Z,43.90
2018-07-14T08:54:38.189Z,43.80
2018-07-14T08:56:41.537Z,43.90
2018-07-14T08:58:44.104Z,43.90
2018-07-14T09:00:46.645Z,44.00
2018-07-14T09:02:49.208Z,43.70
2018-07-14T09:04:52.570Z,43.10
2018-07-14T09:06:55.115Z,43.10
2018-07-14T09:08:57.689Z,42.80
2018-07-14T09:11:01.042Z,42.50
2018-07-14T09:13:03.653Z,42.50
2018-07-14T09:15:06.219Z,42.40
2018-07-14T09:17:08.806Z,42.20
2018-07-14T09:19:11.354Z,42.10
2018-07-14T09:21:13.908Z,41.90
2018-07-14T09:23:16.474Z,41.50
2018-07-14T09:25:19.086Z,41.00
2018-07-14T09:27:21.663Z,40.80
2018-07-14T09:29:24.255Z,40.80
2018-07-14T09:31:26.823Z,40.60
2018-07-14T09:33:29.392Z,40.00
2018-07-14T09:35:31.928Z,39.70
2018-07-14T09:37:35.245Z,39.60
2018-07-14T09:39:37.792Z,39.50
2018-07-14T09:41:40.393Z,39.60
2018-07-14T09:43:42.954Z,39.50
2018-07-14T09:45:45.501Z,39.60
2018-07-14T09:47:48.103Z,39.50
2018-07-14T09:49:51.404Z,39.40
2018-07-14T09:51:53.981Z,39.40
2018-07-14T09:53:56.532Z,39.60
2018-07-14T09:55:59.070Z,39.50
2018-07-14T09:58:02.425Z,39.30
2018-07-14T10:00:04.985Z,39.20
2018-07-14T10:02:07.562Z,39.10
2018-07-14T10:04:10.240Z,38.90
2018-07-14T10:06:12.986Z,38.70
2018-07-14T10:08:15.489Z,38.60
2018-07-14T10:10:18.074Z,38.60
2018-07-14T10:12:20.643Z,38.50
2018-07-14T10:14:23.186Z,38.40
2018-07-14T10:16:25.749Z,38.60
2018-07-14T10:18:28.400Z,38.50
2018-07-14T10:20:30.929Z,38.10
2018-07-14T10:22:33.617Z,37.90
2018-07-14T10:24:36.160Z,38.10
2018-07-14T10:26:38.697Z,38.20
2018-07-14T10:28:42.078Z,38.00
2018-07-14T10:30:44.603Z,37.90
2018-07-14T10:32:47.209Z,38.00
2018-07-14T10:34:49.766Z,38.10
2018-07-14T10:36:52.333Z,37.90
2018-07-14T10:38:54.998Z,37.90
2018-07-14T10:40:57.484Z,37.80
2018-07-14T10:43:00.113Z,37.80
2018-07-14T10:45:05.250Z,37.80
2018-07-14T10:47:07.884Z,37.70
2018-07-14T10:49:10.437Z,37.70
2018-07-14T10:51:13.011Z,37.20
2018-07-14T10:53:15.574Z,36.50
2018-07-14T10:55:18.136Z,36.00
2018-07-14T10:57:20.871Z,35.60
2018-07-14T10:59:23.414Z,35.50
2018-07-14T11:01:25.973Z,35.50
2018-07-14T11:03:28.538Z,35.30
2018-07-14T11:05:31.164Z,35.20
2018-07-14T11:07:33.700Z,35.20
2018-07-14T11:09:36.245Z,35.10
2018-07-14T11:11:38.849Z,35.20
2018-07-14T11:13:41.913Z,35.30
2018-07-14T11:15:45.202Z,35.20
2018-07-14T11:17:47.778Z,35.20
2018-07-14T11:19:50.317Z,34.80
2018-07-14T11:21:53.809Z,34.50
2018-07-14T11:23:57.173Z,34.10
2018-07-14T11:25:59.828Z,34.00
2018-07-14T11:28:02.397Z,33.80
2018-07-14T11:30:05.014Z,33.60
2018-07-14T11:32:07.568Z,33.70
2018-07-14T11:34:10.165Z,33.70
2018-07-14T11:36:13.528Z,34.30
2018-07-14T11:38:16.133Z,33.30
2018-07-14T11:40:18.661Z,33.10
2018-07-14T11:42:21.254Z,33.10
2018-07-14T11:44:23.821Z,33.20
2018-07-14T11:46:26.373Z,32.80
2018-07-14T11:48:28.943Z,32.40
2018-07-14T11:50:31.552Z,32.30
2018-07-14T11:52:34.120Z,32.40
2018-07-14T11:54:36.661Z,32.50
2018-07-14T11:56:39.206Z,32.40
2018-07-14T11:58:42.586Z,32.30
2018-07-14T12:00:45.913Z,32.30
2018-07-14T12:02:48.493Z,32.20
2018-07-14T12:04:51.080Z,32.30
2018-07-14T12:06:53.636Z,32.40
2018-07-14T12:08:56.229Z,32.40
2018-07-14T12:10:58.792Z,32.50
2018-07-14T12:13:01.353Z,32.60
2018-07-14T12:15:03.919Z,32.80
2018-07-14T12:17:07.354Z,32.30
2018-07-14T12:19:10.842Z,32.10
2018-07-14T12:21:13.542Z,32.10
2018-07-14T12:23:16.089Z,32.00
2018-07-14T12:25:18.629Z,31.90
2018-07-14T12:27:21.214Z,31.80
2018-07-14T12:29:24.104Z,32.00
2018-07-14T12:31:26.847Z,31.70
2018-07-14T12:33:30.165Z,31.40
2018-07-14T12:35:32.949Z,31.30
2018-07-14T12:37:35.572Z,31.20
2018-07-14T12:39:38.700Z,31.30
2018-07-14T12:41:41.293Z,31.20
2018-07-14T12:43:43.903Z,31.10
2018-07-14T12:45:46.764Z,31.60
2018-07-14T12:47:49.500Z,31.40
2018-07-14T12:49:52.138Z,31.20
2018-07-14T12:51:55.868Z,30.60
2018-07-14T12:53:59.186Z,30.50
2018-07-14T12:56:01.776Z,30.50
2018-07-14T12:58:04.404Z,30.80
2018-07-14T13:00:07.005Z,30.80
2018-07-14T13:02:10.308Z,31.10
2018-07-14T13:04:12.974Z,31.00
2018-07-14T13:06:15.523Z,31.00
2018-07-14T13:08:18.151Z,31.10
2018-07-14T13:10:20.725Z,31.10
2018-07-14T13:12:23.377Z,31.50
2018-07-14T13:14:25.964Z,31.40
2018-07-14T13:16:28.563Z,31.30
2018-07-14T13:18:31.117Z,31.10
2018-07-14T13:20:35.185Z,31.10
2018-07-14T13:22:37.819Z,31.10
2018-07-14T13:24:40.873Z,31.10
2018-07-14T13:26:43.441Z,31.00
2018-07-14T13:28:46.026Z,31.00
2018-07-14T13:30:48.580Z,31.10
2018-07-14T13:32:51.142Z,31.30
2018-07-14T13:34:53.705Z,31.50
2018-07-14T13:36:56.261Z,31.50
2018-07-14T13:38:59.654Z,31.20
2018-07-14T13:41:02.153Z,31.10
2018-07-14T13:43:04.740Z,30.30
2018-07-14T13:45:07.321Z,29.90
2018-07-14T13:47:09.890Z,29.60
2018-07-14T13:49:12.569Z,29.70
2018-07-14T13:51:15.109Z,29.60
2018-07-14T13:53:17.677Z,29.70
2018-07-14T13:55:21.012Z,29.40
2018-07-14T13:57:23.563Z,29.30
2018-07-14T13:59:26.129Z,29.20
2018-07-14T14:01:28.733Z,29.30
2018-07-14T14:03:31.288Z,29.30
2018-07-14T14:05:33.872Z,29.50
2018-07-14T14:07:36.688Z,29.80
2018-07-14T14:09:40.205Z,29.80
2018-07-14T14:11:43.618Z,29.70
2018-07-14T14:13:46.585Z,29.50
2018-07-14T14:15:49.541Z,29.50
2018-07-14T14:17:52.557Z,29.70
2018-07-14T14:19:55.395Z,29.80
2018-07-14T14:21:58.081Z,29.70
2018-07-14T14:24:01.013Z,29.60
2018-07-14T14:26:03.943Z,29.60
2018-07-14T14:28:07.030Z,29.60
2018-07-14T14:30:10.115Z,29.60
2018-07-14T14:32:12.725Z,29.60
2018-07-14T14:34:15.507Z,29.80
2018-07-14T14:36:18.082Z,29.80
2018-07-14T14:38:21.919Z,29.70
2018-07-14T14:40:25.649Z,29.20
2018-07-14T14:42:28.606Z,29.10
2018-07-14T14:44:32.245Z,29.30
2018-07-14T14:46:35.865Z,29.20
2018-07-14T14:48:38.999Z,29.40
2018-07-14T14:50:42.385Z,29.60
2018-07-14T14:52:44.920Z,29.50
2018-07-14T14:54:47.482Z,29.60
2018-07-14T14:56:50.081Z,29.60
2018-07-14T14:58:52.701Z,29.60
2018-07-14T15:00:56.056Z,29.70
2018-07-14T15:02:58.625Z,30.10
2018-07-14T15:05:01.312Z,29.50
2018-07-14T15:07:03.881Z,29.60
2018-07-14T15:09:06.565Z,29.60
2018-07-14T15:11:09.846Z,29.40
2018-07-14T15:13:12.513Z,29.40
2018-07-14T15:15:15.076Z,29.30
2018-07-14T15:17:17.679Z,29.20
2018-07-14T15:19:20.241Z,29.20
2018-07-14T15:21:22.785Z,29.50
2018-07-14T15:23:25.389Z,29.70
2018-07-14T15:25:27.961Z,29.70
2018-07-14T15:27:30.791Z,30.00
2018-07-14T15:29:34.377Z,30.00
2018-07-14T15:31:38.682Z,29.80
2018-07-14T15:33:41.432Z,29.70
2018-07-14T15:35:44.280Z,29.60
2018-07-14T15:37:47.342Z,29.40
2018-07-14T15:39:50.190Z,29.40
2018-07-14T15:41:52.988Z,29.40
2018-07-14T15:43:56.173Z,29.60
2018-07-14T15:46:00.300Z,29.80
2018-07-14T15:48:03.713Z,29.90
2018-07-14T15:50:07.598Z,29.80
2018-07-14T15:52:11.468Z,29.70
2018-07-14T15:54:14.365Z,29.60
2018-07-14T15:56:17.428Z,29.60
2018-07-14T15:58:20.178Z,29.70
2018-07-14T16:00:23.078Z,29.70
2018-07-14T16:02:25.518Z,29.70
2018-07-14T16:04:29.278Z,29.70
2018-07-14T16:06:31.980Z,29.70
2018-07-14T16:08:34.634Z,29.70
2018-07-14T16:10:38.860Z,29.80
2018-07-14T16:12:41.601Z,29.70
2018-07-14T16:14:44.260Z,29.80
2018-07-14T16:16:46.823Z,29.60
2018-07-14T16:18:49.493Z,29.40
2018-07-14T16:20:52.325Z,29.20
2018-07-14T16:22:54.906Z,29.00
2018-07-14T16:24:58.699Z,28.90
2018-07-14T16:27:01.274Z,28.80
2018-07-14T16:29:03.949Z,28.80
2018-07-14T16:31:06.829Z,28.70
2018-07-14T16:33:09.551Z,28.60
2018-07-14T16:35:12.845Z,28.50
2018-07-14T16:37:15.488Z,28.40
2018-07-14T16:39:19.279Z,28.20
2018-07-14T16:41:22.769Z,28.10
2018-07-14T16:43:26.130Z,28.00
2018-07-14T16:45:28.686Z,28.10
2018-07-14T16:47:31.245Z,28.10
2018-07-14T16:49:34.312Z,28.10
2018-07-14T16:51:38.197Z,28.20
2018-07-14T16:53:40.770Z,28.10
2018-07-14T16:55:43.333Z,28.10
2018-07-14T16:57:45.872Z,27.90
2018-07-14T16:59:48.432Z,27.70
2018-07-14T17:01:51.012Z,27.40
2018-07-14T17:03:53.551Z,27.30
2018-07-14T17:05:56.877Z,27.30
2018-07-14T17:07:59.425Z,27.30
2018-07-14T17:10:02.005Z,27.30
2018-07-14T17:12:04.652Z,27.30
2018-07-14T17:14:07.228Z,27.20
2018-07-14T17:16:11.434Z,26.90
2018-07-14T17:18:13.958Z,26.90
2018-07-14T17:20:16.525Z,26.80
2018-07-14T17:22:19.117Z,26.70
2018-07-14T17:24:21.669Z,26.70
2018-07-14T17:26:24.257Z,26.80
2018-07-14T17:28:26.827Z,26.80
2018-07-14T17:30:29.454Z,26.90
2018-07-14T17:32:31.991Z,26.90
2018-07-14T17:34:34.536Z,26.60
2018-07-14T17:36:37.117Z,26.50
2018-07-14T17:38:39.710Z,26.40
2018-07-14T17:40:42.313Z,26.40
2018-07-14T17:42:44.850Z,26.40
2018-07-14T17:44:47.410Z,26.50
2018-07-14T17:46:50.782Z,26.60
2018-07-14T17:48:53.408Z,26.70
2018-07-14T17:50:55.990Z,26.70
2018-07-14T17:52:58.726Z,26.70
2018-07-14T17:55:01.321Z,26.70
2018-07-14T17:57:03.885Z,26.70
2018-07-14T17:59:06.569Z,27.00
2018-07-14T18:01:09.125Z,27.00
2018-07-14T18:03:11.720Z,27.20
2018-07-14T18:05:14.271Z,27.10
2018-07-14T18:07:17.077Z,27.10
2018-07-14T18:09:19.742Z,27.10
2018-07-14T18:11:22.305Z,27.00
2018-07-14T18:13:24.877Z,27.00
2018-07-14T18:15:27.445Z,27.10
2018-07-14T18:17:30.026Z,27.10
2018-07-14T18:19:32.613Z,27.10
2018-07-14T18:21:35.177Z,27.10
2018-07-14T18:23:37.766Z,27.10
2018-07-14T18:25:40.649Z,27.10
2018-07-14T18:27:43.992Z,28.00
2018-07-14T18:29:46.711Z,27.50
2018-07-14T18:31:49.283Z,27.60
2018-07-14T18:33:51.864Z,27.60
2018-07-14T18:35:54.766Z,27.60
2018-07-14T18:37:57.547Z,27.60
2018-07-14T18:40:00.905Z,27.80
2018-07-14T18:42:03.479Z,27.80
2018-07-14T18:44:06.026Z,27.90
2018-07-14T18:46:08.624Z,28.00
2018-07-14T18:48:11.436Z,28.10
2018-07-14T18:50:14.014Z,28.20
2018-07-14T18:52:17.396Z,28.50
2018-07-14T18:54:19.937Z,28.40
2018-07-14T18:56:22.582Z,28.60
2018-07-14T18:58:25.227Z,28.70
2018-07-14T19:00:27.761Z,28.90
2018-07-14T19:02:30.964Z,29.10
2018-07-14T19:04:33.505Z,29.30
2018-07-14T19:06:36.088Z,29.40
2018-07-14T19:08:38.673Z,29.50
2018-07-14T19:10:41.258Z,29.70
2018-07-14T19:12:43.842Z,30.30
2018-07-14T19:14:46.412Z,30.00
2018-07-14T19:16:48.977Z,30.10
2018-07-14T19:18:51.524Z,30.50
2018-07-14T19:20:54.114Z,30.50
2018-07-14T19:22:57.371Z,30.80
2018-07-14T19:24:59.914Z,30.90
2018-07-14T19:27:03.800Z,31.40
2018-07-14T19:29:07.849Z,31.50
2018-07-14T19:31:10.438Z,31.40
2018-07-14T19:33:13.041Z,31.60
2018-07-14T19:35:15.600Z,32.00
2018-07-14T19:37:18.207Z,32.10
2018-07-14T19:39:20.740Z,32.30
2018-07-14T19:41:23.329Z,32.40
2018-07-14T19:43:25.883Z,32.60
2018-07-14T19:45:28.759Z,32.70
2018-07-14T19:47:31.407Z,32.80
2018-07-14T19:49:33.962Z,32.90
2018-07-14T19:51:36.615Z,32.80
2018-07-14T19:53:39.174Z,33.00
2018-07-14T19:55:41.751Z,33.20
2018-07-14T19:57:44.316Z,33.40
2018-07-14T19:59:46.905Z,33.60
2018-07-14T20:01:49.602Z,33.60
2018-07-14T20:03:52.128Z,33.80
2018-07-14T20:05:54.674Z,33.80
2018-07-14T20:07:57.249Z,34.00
2018-07-14T20:10:00.002Z,34.10
2018-07-14T20:12:02.778Z,34.20
2018-07-14T20:14:07.224Z,34.20
2018-07-14T20:16:10.690Z,34.20
2018-07-14T20:18:13.473Z,34.20
2018-07-14T20:20:16.319Z,34.10
2018-07-14T20:22:18.918Z,34.10
2018-07-14T20:24:21.674Z,34.10
2018-07-14T20:26:24.245Z,34.30
2018-07-14T20:28:26.902Z,34.40
2018-07-14T20:30:29.885Z,34.40
2018-07-14T20:32:32.464Z,34.50
2018-07-14T20:34:35.288Z,34.80
2018-07-14T20:36:38.734Z,35.30
2018-07-14T20:38:41.576Z,35.20
2018-07-14T20:40:44.329Z,35.50
2018-07-14T20:42:47.121Z,35.70
2018-07-14T20:44:51.330Z,35.80
2018-07-14T20:46:53.932Z,35.90
2018-07-14T20:48:56.596Z,35.90
2018-07-14T20:50:59.933Z,36.10
2018-07-14T20:53:02.587Z,36.10
2018-07-14T20:55:05.434Z,36.10
2018-07-14T20:57:08.269Z,36.20
2018-07-14T20:59:10.829Z,36.30
2018-07-14T21:01:13.567Z,36.50
2018-07-14T21:03:16.913Z,36.60
2018-07-14T21:05:19.624Z,36.50
2018-07-14T21:07:22.418Z,36.60
2018-07-14T21:09:25.980Z,36.90
2018-07-14T21:11:30.396Z,37.00
2018-07-14T21:13:33.021Z,36.90
2018-07-14T21:15:35.731Z,36.60
2018-07-14T21:17:38.417Z,37.00
2018-07-14T21:19:40.976Z,36.30
2018-07-14T21:21:43.665Z,36.40
2018-07-14T21:23:46.241Z,36.60
2018-07-14T21:25:48.789Z,36.70
2018-07-14T21:27:51.457Z,36.90
2018-07-14T21:29:54.013Z,37.00
2018-07-14T21:31:56.637Z,37.20
2018-07-14T21:33:59.919Z,37.60
2018-07-14T21:36:02.473Z,37.60
2018-07-14T21:38:05.070Z,37.70
2018-07-14T21:40:07.656Z,37.80
2018-07-14T21:42:10.194Z,38.10
2018-07-14T21:44:12.799Z,38.20
2018-07-14T21:46:15.373Z,38.40
2018-07-14T21:48:17.929Z,38.60
2018-07-14T21:50:20.480Z,38.80
2018-07-14T21:52:23.047Z,38.90
2018-07-14T21:54:26.358Z,39.20
2018-07-14T21:56:29.726Z,39.50
2018-07-14T21:58:32.346Z,40.00
2018-07-14T22:00:34.890Z,39.40
2018-07-14T22:02:37.462Z,39.50
2018-07-14T22:04:40.008Z,39.60
2018-07-14T22:06:43.349Z,39.80
2018-07-14T22:08:45.894Z,39.80
2018-07-14T22:10:48.441Z,39.90
2018-07-14T22:12:51.765Z,40.00
2018-07-14T22:14:54.367Z,40.00
2018-07-14T22:16:56.893Z,40.10
2018-07-14T22:18:59.590Z,40.20
2018-07-14T22:21:02.157Z,40.30
2018-07-14T22:23:04.878Z,40.40
2018-07-14T22:25:08.161Z,40.50
2018-07-14T22:27:10.708Z,40.50
2018-07-14T22:29:13.325Z,40.60
2018-07-14T22:31:15.829Z,40.60
2018-07-14T22:33:18.402Z,40.80
2018-07-14T22:35:20.948Z,40.90
2018-07-14T22:37:24.257Z,40.70
2018-07-14T22:39:27.214Z,40.70
2018-07-14T22:41:29.747Z,40.60
2018-07-14T22:43:32.349Z,40.60
2018-07-14T22:45:35.001Z,40.60
2018-07-14T22:47:37.557Z,40.50
2018-07-14T22:49:40.172Z,40.40
2018-07-14T22:51:42.705Z,40.40
2018-07-14T22:53:45.296Z,40.30
2018-07-14T22:55:47.857Z,40.30
2018-07-14T22:57:50.446Z,40.40
2018-07-14T22:59:53.045Z,40.40
2018-07-14T23:01:55.701Z,40.40
2018-07-14T23:03:58.245Z,40.40
2018-07-14T23:06:00.880Z,40.50
2018-07-14T23:08:03.419Z,40.70
2018-07-14T23:10:05.973Z,40.70
2018-07-14T23:12:08.524Z,40.80
2018-07-14T23:14:11.099Z,40.90
2018-07-14T23:16:13.705Z,40.90
2018-07-14T23:18:16.246Z,41.00
2018-07-14T23:20:18.853Z,41.00
2018-07-14T23:22:21.416Z,41.00
2018-07-14T23:24:23.973Z,41.10
2018-07-14T23:26:26.607Z,41.00
2018-07-14T23:28:29.169Z,41.00
2018-07-14T23:30:31.717Z,41.10
2018-07-14T23:32:34.270Z,41.10
2018-07-14T23:34:36.837Z,41.10
2018-07-14T23:36:39.549Z,41.20
2018-07-14T23:38:42.113Z,41.30
2018-07-14T23:40:44.701Z,41.30
2018-07-14T23:42:47.365Z,41.40
2018-07-14T23:44:49.985Z,42.10
2018-07-14T23:46:53.305Z,41.70
2018-07-14T23:48:55.853Z,41.70
2018-07-14T23:50:59.205Z,41.80
2018-07-14T23:53:01.783Z,41.80
2018-07-14T23:55:04.340Z,41.90
2018-07-14T23:57:06.946Z,41.90
2018-07-14T23:59:09.505Z,41.90
